sensor_id;sensor_type;location;lat;lon;timestamp;pressure;altitude;pressure_sealevel;temperature;humidity
58690;BME280;44470;53.206;-6.106;2023-03-25T00:02:19;99240.22;;;19.51;56.08
58690;BME280;44470;53.206;-6.106;2023-03-25T00:04:47;99239.31;;;19.52;56.03
58690;BME280;44470;53.206;-6.106;2023-03-25T00:07:16;99222.44;;;19.52;56.13
58690;BME280;44470;53.206;-6.106;2023-03-25T00:09:42;99241.16;;;19.50;56.13
58690;BME280;44470;53.206;-6.106;2023-03-25T00:12:08;99247.38;;;19.51;56.07
58690;BME280;44470;53.206;-6.106;2023-03-25T00:14:33;99254.50;;;19.50;55.90
58690;BME280;44470;53.206;-6.106;2023-03-25T00:16:59;99253.72;;;19.48;56.18
58690;BME280;44470;53.206;-6.106;2023-03-25T00:19:25;99248.38;;;19.48;56.10
58690;BME280;44470;53.206;-6.106;2023-03-25T00:21:51;99252.84;;;19.48;56.10
58690;BME280;44470;53.206;-6.106;2023-03-25T00:24:18;99257.31;;;19.47;55.59
58690;BME280;44470;53.206;-6.106;2023-03-25T00:26:44;99257.25;;;19.49;55.95
58690;BME280;44470;53.206;-6.106;2023-03-25T00:29:10;99267.06;;;19.48;55.44
58690;BME280;44470;53.206;-6.106;2023-03-25T00:31:36;99268.75;;;19.51;55.75
58690;BME280;44470;53.206;-6.106;2023-03-25T00:34:01;99274.13;;;19.49;55.86
58690;BME280;44470;53.206;-6.106;2023-03-25T00:36:27;99275.94;;;19.49;55.70
58690;BME280;44470;53.206;-6.106;2023-03-25T00:38:52;99291.06;;;19.48;55.85
58690;BME280;44470;53.206;-6.106;2023-03-25T00:41:19;99285.72;;;19.48;55.78
58690;BME280;44470;53.206;-6.106;2023-03-25T00:43:53;99292.81;;;19.49;55.81
58690;BME280;44470;53.206;-6.106;2023-03-25T00:46:19;99300.00;;;19.47;55.89
58690;BME280;44470;53.206;-6.106;2023-03-25T00:48:47;99307.06;;;19.48;55.78
58690;BME280;44470;53.206;-6.106;2023-03-25T00:51:12;99311.69;;;19.44;55.73
58690;BME280;44470;53.206;-6.106;2023-03-25T00:53:45;99311.59;;;19.46;55.90
58690;BME280;44470;53.206;-6.106;2023-03-25T00:56:11;99322.28;;;19.46;55.24
58690;BME280;44470;53.206;-6.106;2023-03-25T00:58:37;99308.69;;;19.52;55.25
58690;BME280;44470;53.206;-6.106;2023-03-25T01:01:12;99329.22;;;19.50;56.35
58690;BME280;44470;53.206;-6.106;2023-03-25T01:03:38;99323.97;;;19.49;56.12
58690;BME280;44470;53.206;-6.106;2023-03-25T01:06:15;99333.75;;;19.48;55.74
58690;BME280;44470;53.206;-6.106;2023-03-25T01:08:41;99354.25;;;19.48;55.88
58690;BME280;44470;53.206;-6.106;2023-03-25T01:11:20;99356.97;;;19.46;55.67
58690;BME280;44470;53.206;-6.106;2023-03-25T01:13:49;99364.97;;;19.46;55.64
58690;BME280;44470;53.206;-6.106;2023-03-25T01:16:15;99373.91;;;19.45;55.66
58690;BME280;44470;53.206;-6.106;2023-03-25T01:18:43;99370.31;;;19.46;55.52
58690;BME280;44470;53.206;-6.106;2023-03-25T01:21:09;99376.56;;;19.45;55.45
58690;BME280;44470;53.206;-6.106;2023-03-25T01:23:34;99387.25;;;19.45;55.39
58690;BME280;44470;53.206;-6.106;2023-03-25T01:26:00;99392.59;;;19.45;55.85
58690;BME280;44470;53.206;-6.106;2023-03-25T01:28:26;99400.72;;;19.42;55.63
58690;BME280;44470;53.206;-6.106;2023-03-25T01:30:58;99406.16;;;19.39;55.85
58690;BME280;44470;53.206;-6.106;2023-03-25T01:33:24;99411.50;;;19.39;55.52
58690;BME280;44470;53.206;-6.106;2023-03-25T01:35:50;99424.81;;;19.40;55.74
58690;BME280;44470;53.206;-6.106;2023-03-25T01:38:15;99419.38;;;19.42;55.54
58690;BME280;44470;53.206;-6.106;2023-03-25T01:40:41;99419.38;;;19.42;55.35
58690;BME280;44470;53.206;-6.106;2023-03-25T01:43:09;99428.31;;;19.41;55.42
58690;BME280;44470;53.206;-6.106;2023-03-25T01:45:37;99429.31;;;19.38;55.50
58690;BME280;44470;53.206;-6.106;2023-03-25T01:48:11;99440.84;;;19.39;55.79
58690;BME280;44470;53.206;-6.106;2023-03-25T01:50:41;99446.19;;;19.39;55.23
58690;BME280;44470;53.206;-6.106;2023-03-25T01:53:08;99461.38;;;19.37;55.99
58690;BME280;44470;53.206;-6.106;2023-03-25T01:55:34;99455.13;;;19.38;55.69
58690;BME280;44470;53.206;-6.106;2023-03-25T01:58:03;99465.78;;;19.38;55.78
58690;BME280;44470;53.206;-6.106;2023-03-25T02:00:29;99472.88;;;19.39;55.71
58690;BME280;44470;53.206;-6.106;2023-03-25T02:02:56;99476.47;;;19.38;55.76
58690;BME280;44470;53.206;-6.106;2023-03-25T02:05:32;99487.13;;;19.38;55.81
58690;BME280;44470;53.206;-6.106;2023-03-25T02:08:00;99485.44;;;19.35;55.70
58690;BME280;44470;53.206;-6.106;2023-03-25T02:10:27;99499.66;;;19.36;55.60
58690;BME280;44470;53.206;-6.106;2023-03-25T02:12:53;99496.06;;;19.37;55.92
58690;BME280;44470;53.206;-6.106;2023-03-25T02:15:19;99498.78;;;19.35;55.85
58690;BME280;44470;53.206;-6.106;2023-03-25T02:17:50;99513.94;;;19.35;55.84
58690;BME280;44470;53.206;-6.106;2023-03-25T02:20:43;99526.34;;;19.36;55.72
58690;BME280;44470;53.206;-6.106;2023-03-25T02:26:08;99558.34;;;19.36;55.82
58690;BME280;44470;53.206;-6.106;2023-03-25T02:28:42;99567.19;;;19.38;55.38
58690;BME280;44470;53.206;-6.106;2023-03-25T02:39:09;99574.38;;;19.36;55.77
58690;BME280;44470;53.206;-6.106;2023-03-25T02:44:34;99571.69;;;19.36;55.45
58690;BME280;44470;53.206;-6.106;2023-03-25T02:47:02;99583.28;;;19.35;55.72
58690;BME280;44470;53.206;-6.106;2023-03-25T02:49:30;99586.00;;;19.33;55.82
58690;BME280;44470;53.206;-6.106;2023-03-25T02:52:01;99590.47;;;19.33;55.77
58690;BME280;44470;53.206;-6.106;2023-03-25T02:54:30;99594.91;;;19.34;55.72
58690;BME280;44470;53.206;-6.106;2023-03-25T02:56:58;99605.59;;;19.32;55.63
58690;BME280;44470;53.206;-6.106;2023-03-25T02:59:24;99599.41;;;19.31;55.84
58690;BME280;44470;53.206;-6.106;2023-03-25T03:01:56;99610.09;;;19.31;55.61
58690;BME280;44470;53.206;-6.106;2023-03-25T03:04:24;99599.41;;;19.31;55.49
58690;BME280;44470;53.206;-6.106;2023-03-25T03:06:50;99619.00;;;19.30;55.80
58690;BME280;44470;53.206;-6.106;2023-03-25T03:24:49;99637.69;;;19.30;55.48
58690;BME280;44470;53.206;-6.106;2023-03-25T03:29:49;99629.69;;;19.30;55.84
58690;BME280;44470;53.206;-6.106;2023-03-25T03:32:35;99632.28;;;19.32;55.31
58690;BME280;44470;53.206;-6.106;2023-03-25T03:35:12;99621.63;;;19.32;55.46
58690;BME280;44470;53.206;-6.106;2023-03-25T03:37:40;99631.44;;;19.31;55.38
58690;BME280;44470;53.206;-6.106;2023-03-25T03:40:09;99634.13;;;19.30;55.48
58690;BME280;44470;53.206;-6.106;2023-03-25T03:42:40;99646.50;;;19.33;55.38
58690;BME280;44470;53.206;-6.106;2023-03-25T03:45:15;99642.97;;;19.32;54.47
58690;BME280;44470;53.206;-6.106;2023-03-25T03:47:42;99646.53;;;19.31;55.51
58690;BME280;44470;53.206;-6.106;2023-03-25T03:50:15;99659.03;;;19.30;55.57
58690;BME280;44470;53.206;-6.106;2023-03-25T03:52:45;99656.38;;;19.30;55.50
58690;BME280;44470;53.206;-6.106;2023-03-25T03:55:19;99654.63;;;19.29;55.62
58690;BME280;44470;53.206;-6.106;2023-03-25T03:57:48;99654.63;;;19.29;55.41
58690;BME280;44470;53.206;-6.106;2023-03-25T04:00:17;99660.88;;;19.28;55.26
58690;BME280;44470;53.206;-6.106;2023-03-25T04:02:50;99669.75;;;19.29;55.71
58690;BME280;44470;53.206;-6.106;2023-03-25T04:05:18;99647.88;;;19.19;55.27
58690;BME280;44470;53.206;-6.106;2023-03-25T04:07:58;99667.03;;;19.30;55.24
58690;BME280;44470;53.206;-6.106;2023-03-25T04:12:54;99667.97;;;19.29;55.30
58690;BME280;44470;53.206;-6.106;2023-03-25T04:15:21;99675.97;;;19.29;55.41
58690;BME280;44470;53.206;-6.106;2023-03-25T04:17:46;99668.38;;;19.17;55.14
58690;BME280;44470;53.206;-6.106;2023-03-25T04:20:13;99677.81;;;19.27;55.53
58690;BME280;44470;53.206;-6.106;2023-03-25T04:22:39;99675.16;;;19.27;55.32
58690;BME280;44470;53.206;-6.106;2023-03-25T04:25:10;99675.97;;;19.29;55.55
58690;BME280;44470;53.206;-6.106;2023-03-25T04:27:36;99684.91;;;19.28;55.61
58690;BME280;44470;53.206;-6.106;2023-03-25T04:30:02;99671.59;;;19.27;55.32
58690;BME280;44470;53.206;-6.106;2023-03-25T04:32:28;99673.41;;;19.26;54.94
58690;BME280;44470;53.206;-6.106;2023-03-25T04:34:55;99671.66;;;19.25;55.38
58690;BME280;44470;53.206;-6.106;2023-03-25T04:37:23;99677.91;;;19.24;55.50
58690;BME280;44470;53.206;-6.106;2023-03-25T04:39:52;99674.34;;;19.25;55.16
58690;BME280;44470;53.206;-6.106;2023-03-25T04:42:22;99691.19;;;19.26;55.16
58690;BME280;44470;53.206;-6.106;2023-03-25T04:44:57;99696.53;;;19.26;55.53
58690;BME280;44470;53.206;-6.106;2023-03-25T04:47:23;99708.09;;;19.26;55.01
58690;BME280;44470;53.206;-6.106;2023-03-25T04:49:49;99708.09;;;19.26;55.22
58690;BME280;44470;53.206;-6.106;2023-03-25T04:52:15;99704.59;;;19.24;55.33
58690;BME280;44470;53.206;-6.106;2023-03-25T04:54:40;99714.34;;;19.25;55.02
58690;BME280;44470;53.206;-6.106;2023-03-25T04:57:06;99717.88;;;19.26;54.74
58690;BME280;44470;53.206;-6.106;2023-03-25T04:59:34;99724.94;;;19.27;55.20
58690;BME280;44470;53.206;-6.106;2023-03-25T05:02:00;99730.28;;;19.27;54.87
58690;BME280;44470;53.206;-6.106;2023-03-25T05:04:27;99725.00;;;19.25;54.77
58690;BME280;44470;53.206;-6.106;2023-03-25T05:06:53;99725.94;;;19.24;54.74
58690;BME280;44470;53.206;-6.106;2023-03-25T05:09:19;99727.69;;;19.25;54.85
58690;BME280;44470;53.206;-6.106;2023-03-25T05:11:46;99733.94;;;19.24;55.27
58690;BME280;44470;53.206;-6.106;2023-03-25T05:14:15;99734.88;;;19.23;54.69
58690;BME280;44470;53.206;-6.106;2023-03-25T05:16:41;99742.78;;;19.25;54.86
58690;BME280;44470;53.206;-6.106;2023-03-25T05:19:07;99750.88;;;19.23;55.18
58690;BME280;44470;53.206;-6.106;2023-03-25T05:21:36;99745.53;;;19.23;55.04
58690;BME280;44470;53.206;-6.106;2023-03-25T05:24:03;99743.69;;;19.25;55.01
58690;BME280;44470;53.206;-6.106;2023-03-25T05:26:28;99764.13;;;19.25;55.10
58690;BME280;44470;53.206;-6.106;2023-03-25T05:29:12;99776.63;;;19.24;54.80
58690;BME280;44470;53.206;-6.106;2023-03-25T05:31:41;99776.56;;;19.26;55.23
58690;BME280;44470;53.206;-6.106;2023-03-25T05:34:07;99789.06;;;19.24;55.05
58690;BME280;44470;53.206;-6.106;2023-03-25T05:36:33;99793.56;;;19.23;54.81
58690;BME280;44470;53.206;-6.106;2023-03-25T05:38:58;99781.03;;;19.25;54.72
58690;BME280;44470;53.206;-6.106;2023-03-25T05:41:25;99802.38;;;19.25;54.92
58690;BME280;44470;53.206;-6.106;2023-03-25T05:43:57;99795.28;;;19.24;54.72
58690;BME280;44470;53.206;-6.106;2023-03-25T05:46:24;99798.88;;;19.23;54.88
58690;BME280;44470;53.206;-6.106;2023-03-25T05:48:50;99799.81;;;19.22;54.64
58690;BME280;44470;53.206;-6.106;2023-03-25T05:51:16;99798.06;;;19.21;54.98
58690;BME280;44470;53.206;-6.106;2023-03-25T05:53:42;99810.47;;;19.22;55.12
58690;BME280;44470;53.206;-6.106;2023-03-25T05:56:11;99804.22;;;19.23;54.72
58690;BME280;44470;53.206;-6.106;2023-03-25T05:58:37;99818.47;;;19.22;55.18
58690;BME280;44470;53.206;-6.106;2023-03-25T06:01:02;99816.75;;;19.21;55.11
58690;BME280;44470;53.206;-6.106;2023-03-25T06:03:28;99835.44;;;19.20;55.06
58690;BME280;44470;53.206;-6.106;2023-03-25T06:05:54;99838.94;;;19.22;54.89
58690;BME280;44470;53.206;-6.106;2023-03-25T06:08:19;99836.34;;;19.20;54.93
58690;BME280;44470;53.206;-6.106;2023-03-25T06:10:56;99844.28;;;19.22;54.97
58690;BME280;44470;53.206;-6.106;2023-03-25T06:13:25;99838.94;;;19.22;55.13
58690;BME280;44470;53.206;-6.106;2023-03-25T06:15:51;99846.94;;;19.22;54.67
58690;BME280;44470;53.206;-6.106;2023-03-25T06:18:23;99864.75;;;19.21;54.59
58690;BME280;44470;53.206;-6.106;2023-03-25T06:20:49;99861.25;;;19.19;55.14
58690;BME280;44470;53.206;-6.106;2023-03-25T06:23:16;99863.88;;;19.21;55.03
58690;BME280;44470;53.206;-6.106;2023-03-25T06:25:41;99879.00;;;19.20;54.93
58690;BME280;44470;53.206;-6.106;2023-03-25T06:28:07;99877.25;;;19.19;54.89
58690;BME280;44470;53.206;-6.106;2023-03-25T06:30:32;99881.72;;;19.19;54.85
58690;BME280;44470;53.206;-6.106;2023-03-25T06:33:14;99873.78;;;19.17;55.24
58690;BME280;44470;53.206;-6.106;2023-03-25T06:35:40;99903.94;;;19.19;55.37
58690;BME280;44470;53.206;-6.106;2023-03-25T06:38:07;99904.84;;;19.18;55.27
58690;BME280;44470;53.206;-6.106;2023-03-25T06:40:53;99905.72;;;19.19;54.97
58690;BME280;44470;53.206;-6.106;2023-03-25T06:43:20;99911.88;;;19.21;55.19
58690;BME280;44470;53.206;-6.106;2023-03-25T06:46:04;99918.19;;;19.18;54.98
58690;BME280;44470;53.206;-6.106;2023-03-25T06:48:48;99933.28;;;19.19;54.55
58690;BME280;44470;53.206;-6.106;2023-03-25T06:51:14;99941.28;;;19.19;54.97
58690;BME280;44470;53.206;-6.106;2023-03-25T06:53:39;99946.63;;;19.19;55.09
58690;BME280;44470;53.206;-6.106;2023-03-25T06:56:05;99960.88;;;19.18;55.21
58690;BME280;44470;53.206;-6.106;2023-03-25T06:58:30;99967.06;;;19.19;54.75
58690;BME280;44470;53.206;-6.106;2023-03-25T07:00:59;99976.88;;;19.18;54.63
58690;BME280;44470;53.206;-6.106;2023-03-25T07:03:28;99992.88;;;19.18;55.32
58690;BME280;44470;53.206;-6.106;2023-03-25T07:05:53;99995.50;;;19.20;55.19
58690;BME280;44470;53.206;-6.106;2023-03-25T07:08:19;99993.75;;;19.19;54.63
58690;BME280;44470;53.206;-6.106;2023-03-25T07:10:45;100006.22;;;19.18;54.89
58690;BME280;44470;53.206;-6.106;2023-03-25T07:13:10;100018.59;;;19.21;55.42
58690;BME280;44470;53.206;-6.106;2023-03-25T07:15:36;100008.91;;;19.18;54.77
58690;BME280;44470;53.206;-6.106;2023-03-25T07:18:01;100018.66;;;19.19;54.94
58690;BME280;44470;53.206;-6.106;2023-03-25T07:20:27;100007.16;;;19.17;55.24
58690;BME280;44470;53.206;-6.106;2023-03-25T07:22:53;100009.75;;;19.19;54.96
58690;BME280;44470;53.206;-6.106;2023-03-25T07:25:18;99990.22;;;19.18;54.65
58690;BME280;44470;53.206;-6.106;2023-03-25T07:27:43;99998.22;;;19.18;55.20
58690;BME280;44470;53.206;-6.106;2023-03-25T07:30:13;99999.09;;;19.19;54.77
58690;BME280;44470;53.206;-6.106;2023-03-25T07:32:39;99996.47;;;19.17;54.70
58690;BME280;44470;53.206;-6.106;2023-03-25T07:35:04;99999.13;;;19.17;55.03
58690;BME280;44470;53.206;-6.106;2023-03-25T07:37:30;100007.16;;;19.17;54.64
58690;BME280;44470;53.206;-6.106;2023-03-25T07:39:56;100009.84;;;19.15;54.33
58690;BME280;44470;53.206;-6.106;2023-03-25T07:42:21;100024.91;;;19.18;54.30
58690;BME280;44470;53.206;-6.106;2023-03-25T07:45:07;100024.94;;;19.16;54.05
58690;BME280;44470;53.206;-6.106;2023-03-25T07:47:33;100042.75;;;19.16;53.95
58690;BME280;44470;53.206;-6.106;2023-03-25T07:49:59;100047.16;;;19.17;54.20
58690;BME280;44470;53.206;-6.106;2023-03-25T07:52:24;100049.81;;;19.17;53.95
58690;BME280;44470;53.206;-6.106;2023-03-25T07:54:50;100058.75;;;19.16;54.26
58690;BME280;44470;53.206;-6.106;2023-03-25T07:57:15;100062.28;;;19.16;54.22
58690;BME280;44470;53.206;-6.106;2023-03-25T07:59:41;100068.50;;;19.17;54.04
58690;BME280;44470;53.206;-6.106;2023-03-25T08:02:08;100064.94;;;19.16;53.59
58690;BME280;44470;53.206;-6.106;2023-03-25T08:04:33;100070.28;;;19.16;53.60
58690;BME280;44470;53.206;-6.106;2023-03-25T08:06:59;100075.59;;;19.18;53.73
58690;BME280;44470;53.206;-6.106;2023-03-25T08:09:25;100082.69;;;19.17;54.03
58690;BME280;44470;53.206;-6.106;2023-03-25T08:11:50;100099.59;;;19.18;53.95
58690;BME280;44470;53.206;-6.106;2023-03-25T08:14:16;100096.94;;;19.16;54.69
58690;BME280;44470;53.206;-6.106;2023-03-25T08:16:41;100105.88;;;19.15;54.11
58690;BME280;44470;53.206;-6.106;2023-03-25T08:19:06;100106.75;;;19.16;54.44
58690;BME280;44470;53.206;-6.106;2023-03-25T08:21:32;100126.25;;;19.18;54.55
58690;BME280;44470;53.206;-6.106;2023-03-25T08:23:58;100129.84;;;19.17;54.48
58690;BME280;44470;53.206;-6.106;2023-03-25T08:26:47;100134.25;;;19.18;54.77
58690;BME280;44470;53.206;-6.106;2023-03-25T08:29:12;100132.50;;;19.17;54.66
58690;BME280;44470;53.206;-6.106;2023-03-25T08:31:44;100137.00;;;19.15;54.93
58690;BME280;44470;53.206;-6.106;2023-03-25T08:34:11;100137.00;;;19.15;54.53
58690;BME280;44470;53.206;-6.106;2023-03-25T08:36:37;100145.84;;;19.17;54.78
58690;BME280;44470;53.206;-6.106;2023-03-25T08:39:04;100143.22;;;19.15;54.56
58690;BME280;44470;53.206;-6.106;2023-03-25T08:41:34;100150.28;;;19.16;54.29
58690;BME280;44470;53.206;-6.106;2023-03-25T08:44:01;100145.88;;;19.15;54.58
58690;BME280;44470;53.206;-6.106;2023-03-25T08:46:27;100150.34;;;19.15;54.50
58690;BME280;44470;53.206;-6.106;2023-03-25T08:48:52;100152.94;;;19.18;54.49
58690;BME280;44470;53.206;-6.106;2023-03-25T08:51:18;100152.94;;;19.18;54.53
58690;BME280;44470;53.206;-6.106;2023-03-25T08:53:43;100157.44;;;19.16;54.26
58690;BME280;44470;53.206;-6.106;2023-03-25T08:56:09;100164.53;;;19.17;54.33
58690;BME280;44470;53.206;-6.106;2023-03-25T08:58:35;100161.84;;;19.17;54.14
58690;BME280;44470;53.206;-6.106;2023-03-25T09:01:00;100159.19;;;19.17;54.49
58690;BME280;44470;53.206;-6.106;2023-03-25T09:03:27;100157.44;;;19.16;54.43
58690;BME280;44470;53.206;-6.106;2023-03-25T09:05:52;100152.09;;;19.16;54.34
58690;BME280;44470;53.206;-6.106;2023-03-25T09:08:18;100159.19;;;19.17;54.53
58690;BME280;44470;53.206;-6.106;2023-03-25T09:10:44;100154.78;;;19.16;54.59
58690;BME280;44470;53.206;-6.106;2023-03-25T09:13:09;100158.34;;;19.15;54.55
58690;BME280;44470;53.206;-6.106;2023-03-25T09:15:35;100147.69;;;19.15;55.23
58690;BME280;44470;53.206;-6.106;2023-03-25T09:18:01;100160.97;;;19.16;54.94
58690;BME280;44470;53.206;-6.106;2023-03-25T09:20:26;100160.09;;;19.16;54.92
58690;BME280;44470;53.206;-6.106;2023-03-25T09:22:52;100171.63;;;19.16;54.59
58690;BME280;44470;53.206;-6.106;2023-03-25T09:25:17;100181.44;;;19.16;54.95
58690;BME280;44470;53.206;-6.106;2023-03-25T09:27:43;100186.78;;;19.16;54.73
58690;BME280;44470;53.206;-6.106;2023-03-25T09:30:08;100192.13;;;19.16;54.64
58690;BME280;44470;53.206;-6.106;2023-03-25T09:32:34;100192.13;;;19.16;54.69
58690;BME280;44470;53.206;-6.106;2023-03-25T09:34:59;100201.03;;;19.15;54.40
58690;BME280;44470;53.206;-6.106;2023-03-25T09:37:25;100208.16;;;19.14;54.70
58690;BME280;44470;53.206;-6.106;2023-03-25T09:39:54;100209.03;;;19.15;54.80
58690;BME280;44470;53.206;-6.106;2023-03-25T09:47:13;100218.75;;;19.17;54.68
58690;BME280;44470;53.206;-6.106;2023-03-25T09:49:44;100224.13;;;19.16;54.75
58690;BME280;44470;53.206;-6.106;2023-03-25T09:52:13;100229.47;;;19.16;54.55
58690;BME280;44470;53.206;-6.106;2023-03-25T09:54:40;100230.38;;;19.15;54.43
58690;BME280;44470;53.206;-6.106;2023-03-25T09:57:07;100229.47;;;19.16;54.77
58690;BME280;44470;53.206;-6.106;2023-03-25T09:59:47;100235.72;;;19.15;54.68
58690;BME280;44470;53.206;-6.106;2023-03-25T10:02:18;100233.97;;;19.14;54.76
58690;BME280;44470;53.206;-6.106;2023-03-25T10:12:37;100233.97;;;19.14;54.60
58690;BME280;44470;53.206;-6.106;2023-03-25T10:17:41;100217.13;;;19.12;55.70
58690;BME280;44470;53.206;-6.106;2023-03-25T10:25:14;100240.31;;;19.08;56.02
58690;BME280;44470;53.206;-6.106;2023-03-25T10:27:49;100244.66;;;19.12;54.65
58690;BME280;44470;53.206;-6.106;2023-03-25T10:30:17;100245.56;;;19.11;55.15
58690;BME280;44470;53.206;-6.106;2023-03-25T10:32:47;100246.47;;;19.10;54.59
58690;BME280;44470;53.206;-6.106;2023-03-25T10:35:18;100252.72;;;19.11;54.29
58690;BME280;44470;53.206;-6.106;2023-03-25T10:37:45;100249.16;;;19.10;54.01
58690;BME280;44470;53.206;-6.106;2023-03-25T10:42:38;100259.81;;;19.10;53.80
58690;BME280;44470;53.206;-6.106;2023-03-25T10:45:12;100259.84;;;19.09;54.05
58690;BME280;44470;53.206;-6.106;2023-03-25T10:47:39;100268.75;;;19.09;53.81
58690;BME280;44470;53.206;-6.106;2023-03-25T10:50:12;100260.72;;;19.09;54.30
58690;BME280;44470;53.206;-6.106;2023-03-25T10:52:38;100259.84;;;19.09;54.01
58690;BME280;44470;53.206;-6.106;2023-03-25T10:55:03;100263.38;;;19.11;54.16
58690;BME280;44470;53.206;-6.106;2023-03-25T10:57:30;100274.91;;;19.11;53.91
58690;BME280;44470;53.206;-6.106;2023-03-25T11:00:14;100270.50;;;19.10;54.16
58690;BME280;44470;53.206;-6.106;2023-03-25T11:02:43;100275.00;;;19.08;53.98
58690;BME280;44470;53.206;-6.106;2023-03-25T11:05:13;100271.41;;;19.09;54.11
58690;BME280;44470;53.206;-6.106;2023-03-25T11:07:43;100268.72;;;19.11;53.82
58690;BME280;44470;53.206;-6.106;2023-03-25T11:10:14;100270.47;;;19.12;54.44
58690;BME280;44470;53.206;-6.106;2023-03-25T11:12:40;100275.81;;;19.12;53.79
58690;BME280;44470;53.206;-6.106;2023-03-25T11:15:16;100270.25;;;19.21;55.26
58690;BME280;44470;53.206;-6.106;2023-03-25T11:17:43;100278.34;;;19.16;55.33
58690;BME280;44470;53.206;-6.106;2023-03-25T11:20:20;100268.63;;;19.14;54.95
58690;BME280;44470;53.206;-6.106;2023-03-25T11:22:47;100274.91;;;19.11;55.16
58690;BME280;44470;53.206;-6.106;2023-03-25T11:27:46;100273.22;;;19.07;54.14
58690;BME280;44470;53.206;-6.106;2023-03-25T11:30:15;100271.47;;;19.06;54.99
58690;BME280;44470;53.206;-6.106;2023-03-25T11:32:43;100281.19;;;19.09;55.47
58690;BME280;44470;53.206;-6.106;2023-03-25T11:35:22;100267.91;;;19.06;55.27
58690;BME280;44470;53.206;-6.106;2023-03-25T11:37:58;100260.75;;;19.08;55.18
58690;BME280;44470;53.206;-6.106;2023-03-25T11:40:24;100268.75;;;19.08;55.48
58690;BME280;44470;53.206;-6.106;2023-03-25T11:45:36;100256.34;;;19.07;54.75
58690;BME280;44470;53.206;-6.106;2023-03-25T11:48:16;100262.56;;;19.07;55.34
58690;BME280;44470;53.206;-6.106;2023-03-25T11:50:53;100269.63;;;19.10;55.20
58690;BME280;44470;53.206;-6.106;2023-03-25T11:53:19;100268.72;;;19.11;55.08
58690;BME280;44470;53.206;-6.106;2023-03-25T11:55:46;100266.06;;;19.11;55.13
58690;BME280;44470;53.206;-6.106;2023-03-25T11:58:17;100268.72;;;19.11;55.07
58690;BME280;44470;53.206;-6.106;2023-03-25T12:00:50;100269.56;;;19.11;55.03
58690;BME280;44470;53.206;-6.106;2023-03-25T12:03:20;100270.47;;;19.12;54.89
58690;BME280;44470;53.206;-6.106;2023-03-25T12:08:52;100255.31;;;19.12;55.18
58690;BME280;44470;53.206;-6.106;2023-03-25T12:24:16;100257.06;;;19.13;55.02
58690;BME280;44470;53.206;-6.106;2023-03-25T12:29:34;100272.16;;;19.14;55.60
58690;BME280;44470;53.206;-6.106;2023-03-25T12:32:12;100266.84;;;19.14;55.52
58690;BME280;44470;53.206;-6.106;2023-03-25T12:37:29;100256.13;;;19.16;55.88
58690;BME280;44470;53.206;-6.106;2023-03-25T12:43:10;100264.16;;;19.16;55.51
58690;BME280;44470;53.206;-6.106;2023-03-25T12:56:41;100248.97;;;19.18;55.95
58690;BME280;44470;53.206;-6.106;2023-03-25T13:09:24;100235.50;;;19.23;56.44
58690;BME280;44470;53.206;-6.106;2023-03-25T13:12:00;100237.31;;;19.22;56.43
58690;BME280;44470;53.206;-6.106;2023-03-25T13:14:29;100242.66;;;19.21;56.64
58690;BME280;44470;53.206;-6.106;2023-03-25T13:16:58;100239.97;;;19.22;56.40
58690;BME280;44470;53.206;-6.106;2023-03-25T13:19:26;100238.22;;;19.21;56.83
58690;BME280;44470;53.206;-6.106;2023-03-25T13:21:54;100246.22;;;19.21;56.25
58690;BME280;44470;53.206;-6.106;2023-03-25T13:25:06;100251.50;;;19.23;56.28
58690;BME280;44470;53.206;-6.106;2023-03-25T13:27:09;100256.00;;;19.22;56.69
58690;BME280;44470;53.206;-6.106;2023-03-25T13:32:07;100258.69;;;19.21;56.29
58690;BME280;44470;53.206;-6.106;2023-03-25T13:34:42;100257.81;;;19.20;56.90
58690;BME280;44470;53.206;-6.106;2023-03-25T13:39:52;100256.00;;;19.22;56.85
58690;BME280;44470;53.206;-6.106;2023-03-25T13:42:34;100258.59;;;19.24;56.28
58690;BME280;44470;53.206;-6.106;2023-03-25T13:45:02;100247.97;;;19.22;56.63
58690;BME280;44470;53.206;-6.106;2023-03-25T13:50:36;100239.97;;;19.22;56.61
58690;BME280;44470;53.206;-6.106;2023-03-25T13:52:43;100235.50;;;19.23;56.76
58690;BME280;44470;53.206;-6.106;2023-03-25T13:55:21;100236.41;;;19.22;56.54
58690;BME280;44470;53.206;-6.106;2023-03-25T13:58:06;100238.16;;;19.24;56.96
58690;BME280;44470;53.206;-6.106;2023-03-25T14:00:37;100238.16;;;19.24;56.94
58690;BME280;44470;53.206;-6.106;2023-03-25T14:16:05;100227.25;;;18.96;53.45
58690;BME280;44470;53.206;-6.106;2023-03-25T14:18:31;100226.16;;;19.05;55.67
58690;BME280;44470;53.206;-6.106;2023-03-25T14:23:44;100219.66;;;19.16;56.64
58690;BME280;44470;53.206;-6.106;2023-03-25T14:26:14;100222.31;;;19.18;57.09
58690;BME280;44470;53.206;-6.106;2023-03-25T14:29:15;100215.13;;;19.20;57.42
58690;BME280;44470;53.206;-6.106;2023-03-25T14:31:58;100208.91;;;19.20;57.37
58690;BME280;44470;53.206;-6.106;2023-03-25T14:34:24;100208.00;;;19.21;57.25
58690;BME280;44470;53.206;-6.106;2023-03-25T14:44:23;100198.16;;;19.23;56.88
58690;BME280;44470;53.206;-6.106;2023-03-25T14:52:15;100190.97;;;19.25;57.42
58690;BME280;44470;53.206;-6.106;2023-03-25T14:54:42;100188.31;;;19.25;57.16
58690;BME280;44470;53.206;-6.106;2023-03-25T14:57:17;100186.50;;;19.27;56.79
58690;BME280;44470;53.206;-6.106;2023-03-25T14:59:52;100180.28;;;19.26;57.07
58690;BME280;44470;53.206;-6.106;2023-03-25T15:02:29;100182.13;;;19.24;57.19
58690;BME280;44470;53.206;-6.106;2023-03-25T15:04:57;100181.22;;;19.25;56.82
58690;BME280;44470;53.206;-6.106;2023-03-25T15:10:12;100175.81;;;19.27;56.93
58690;BME280;44470;53.206;-6.106;2023-03-25T15:12:43;100175.78;;;19.28;57.33
58690;BME280;44470;53.206;-6.106;2023-03-25T15:15:24;100173.16;;;19.27;57.40
58690;BME280;44470;53.206;-6.106;2023-03-25T15:17:50;100174.03;;;19.27;56.95
58690;BME280;44470;53.206;-6.106;2023-03-25T15:25:32;100173.97;;;19.29;57.45
58690;BME280;44470;53.206;-6.106;2023-03-25T15:28:15;100176.72;;;19.27;57.25